Iron River, Wisconsin
Current Conditions -  °F | °C
As of 7:53 AM on Thursday 18 Dec 2014 (Local Time) from KASX Reporting Station
Overcast Overcast  
Wind Chill: 22°   Ceiling: 2500
Heat Index: 22°   Visibility: 10mi
Dew Point: 19°   Wind: 3mph
Humidity: 89%   Direction: 110°ESE
Pressure: 30.32"   Gusts: NA
Location:  46.56°N, 91.41°W
Report Text: KASX 181353Z AUTO 11003KT 10SM OVC025 M06/M07 A3032 RMK AO2 SLP283 T10561072
Loading
Personal Weather Stations






























Interactive Weather Map New forecast layout! Learn more

10-Day Weather Forecast

Advertisements
Track Severe Weather on mobile